Time;durP1;ratioP1;P1;durP2;ratioP2;P2;SDS_P1;SDS_P2;PMS_P1;PMS_P2;Temp;Humidity;BMP_temperature;BMP_pressure;BME280_temperature;BME280_humidity;BME280_pressure;Samples;Min_cycle;Max_cycle;Signal;HPM_P1;HPM_P2
2022/09/08 00:02:22;;;;;;;4.90;1.80;;;;;;;24.14;52.12;100863.06;4976424;28;21003;-64
2022/09/08 00:04:47;;;;;;;5.40;1.90;;;;;;;24.13;51.50;100860.56;4962525;28;20031;-65
2022/09/08 00:07:12;;;;;;;4.57;1.67;;;;;;;24.16;51.92;100866.38;4967564;28;20884;-63
2022/09/08 00:09:37;;;;;;;4.80;1.67;;;;;;;24.12;52.07;100867.72;4975544;28;20283;-64
2022/09/08 00:12:04;;;;;;;3.83;1.45;;;;;;;24.17;52.05;100869.91;4968347;28;20105;-64
2022/09/08 00:14:31;;;;;;;4.40;1.50;;;;;;;24.16;51.70;100873.53;4972688;28;20085;-65
2022/09/08 00:16:57;;;;;;;4.82;1.52;;;;;;;24.12;51.94;100870.38;4964078;28;20034;-64
2022/09/08 00:19:23;;;;;;;4.57;1.40;;;;;;;24.15;52.17;100863.88;4975159;28;20034;-65
2022/09/08 00:21:48;;;;;;;4.45;1.65;;;;;;;24.14;52.27;100857.72;4974692;28;20378;-65
2022/09/08 00:24:13;;;;;;;5.45;1.80;;;;;;;24.12;51.76;100845.59;4971240;28;20087;-65
2022/09/08 00:26:38;;;;;;;3.53;1.40;;;;;;;24.08;52.24;100837.94;4971385;28;20450;-64
2022/09/08 00:29:04;;;;;;;6.00;1.70;;;;;;;24.07;52.57;100838.94;4970540;28;20299;-64
2022/09/08 00:31:29;;;;;;;5.57;1.73;;;;;;;24.04;52.17;100825.94;4971661;28;20296;-63
2022/09/08 00:33:54;;;;;;;5.15;2.00;;;;;;;24.01;52.47;100830.78;4973218;28;20035;-64
2022/09/08 00:36:20;;;;;;;4.78;2.05;;;;;;;24.02;52.52;100830.59;4980296;28;20494;-64
2022/09/08 00:38:50;;;;;;;4.32;1.50;;;;;;;24.04;52.59;100827.78;4966712;28;20041;-65
2022/09/08 00:41:16;;;;;;;4.40;1.65;;;;;;;24.07;52.36;100830.94;4975689;28;20197;-64
2022/09/08 00:43:44;;;;;;;4.80;1.40;;;;;;;24.08;52.42;100835.28;4976054;28;20030;-63
2022/09/08 00:46:09;;;;;;;5.43;1.63;;;;;;;24.09;51.96;100833.44;4969480;28;20099;-65
2022/09/08 00:48:38;;;;;;;5.77;1.77;;;;;;;24.09;52.38;100817.47;4975244;28;20042;-64
2022/09/08 00:51:04;;;;;;;5.05;1.50;;;;;;;24.07;52.35;100816.81;4975316;28;20129;-64
2022/09/08 00:53:31;;;;;;;6.22;1.70;;;;;;;24.07;52.50;100814.97;4969417;28;20653;-64
2022/09/08 00:55:56;;;;;;;4.68;1.60;;;;;;;24.06;52.39;100817.78;4973775;28;20039;-66
2022/09/08 00:58:22;;;;;;;4.97;1.52;;;;;;;24.05;52.23;100814.31;4965757;28;20355;-64
2022/09/08 01:00:48;;;;;;;4.85;1.60;;;;;;;24.05;52.62;100809.00;4979380;28;20381;-64
2022/09/08 01:03:17;;;;;;;5.90;1.58;;;;;;;24.03;52.71;100802.16;4979655;28;20023;-64
2022/09/08 01:05:48;;;;;;;5.15;2.25;;;;;;;24.02;52.54;100797.81;4975871;28;20034;-64
2022/09/08 01:14:09;;;;;;;4.68;1.60;;;;;;;23.98;52.97;100791.16;4973339;28;20521;-65
2022/09/08 01:16:39;;;;;;;4.18;1.55;;;;;;;24.00;52.65;100792.66;4978219;28;20030;-64
2022/09/08 01:19:07;;;;;;;4.32;1.60;;;;;;;24.00;52.78;100792.66;4984099;28;20037;-64
2022/09/08 01:21:52;;;;;;;6.57;1.48;;;;;;;24.00;52.91;100786.50;4968925;28;20035;-65
2022/09/08 01:24:40;;;;;;;4.63;1.73;;;;;;;24.00;52.93;100774.03;4984910;28;20042;-63
2022/09/08 01:27:28;;;;;;;4.72;1.55;;;;;;;23.96;52.71;100766.53;4969383;28;20042;-64
2022/09/08 01:30:00;;;;;;;4.25;1.40;;;;;;;23.93;52.58;100754.41;4981043;28;20467;-64
2022/09/08 01:32:32;;;;;;;4.82;1.50;;;;;;;23.94;53.10;100752.56;4984615;28;20038;-65
2022/09/08 01:34:57;;;;;;;5.95;1.48;;;;;;;23.96;52.77;100769.19;4965534;28;20113;-63
2022/09/08 01:37:23;;;;;;;4.05;1.30;;;;;;;23.92;52.80;100763.38;4966895;28;20483;-64
2022/09/08 01:39:49;;;;;;;5.00;1.40;;;;;;;23.91;52.55;100764.38;4970351;28;20519;-64
2022/09/08 01:42:14;;;;;;;5.75;1.60;;;;;;;23.92;52.53;100759.88;4968045;28;20031;-63
2022/09/08 01:44:39;;;;;;;3.28;1.30;;;;;;;23.93;52.76;100757.06;4977645;28;20034;-64
2022/09/08 01:47:04;;;;;;;4.70;1.55;;;;;;;23.89;52.51;100763.69;4978152;28;20030;-64
2022/09/08 01:49:30;;;;;;;4.63;1.35;;;;;;;23.88;53.22;100756.72;4974083;28;20030;-63
2022/09/08 01:51:55;;;;;;;3.72;1.45;;;;;;;23.91;52.67;100756.41;4984157;28;20073;-63
2022/09/08 01:54:20;;;;;;;4.00;1.30;;;;;;;23.88;52.85;100752.25;4983988;28;20046;-64
2022/09/08 01:56:46;;;;;;;4.05;1.30;;;;;;;23.92;53.26;100755.38;4976994;28;20034;-65
2022/09/08 01:59:11;;;;;;;4.82;1.48;;;;;;;23.92;53.05;100741.25;4983554;28;20676;-65
2022/09/08 02:01:36;;;;;;;3.20;1.13;;;;;;;23.87;52.82;100736.44;4974832;28;20046;-65
2022/09/08 02:04:05;;;;;;;3.30;1.30;;;;;;;23.90;52.84;100742.25;4967592;28;20106;-64
2022/09/08 02:06:30;;;;;;;4.15;1.30;;;;;;;23.90;52.71;100736.09;4976441;28;20537;-64
2022/09/08 02:08:56;;;;;;;3.20;1.10;;;;;;;23.86;52.62;100727.63;4976502;28;20062;-64
2022/09/08 02:11:21;;;;;;;4.40;1.20;;;;;;;23.89;53.03;100723.78;4974806;28;20042;-65
2022/09/08 02:13:47;;;;;;;4.05;1.20;;;;;;;23.86;52.82;100716.97;4972296;28;20043;-65
2022/09/08 02:16:12;;;;;;;4.03;1.25;;;;;;;23.87;52.68;100723.94;4965379;28;20435;-65
2022/09/08 02:18:39;;;;;;;3.67;1.40;;;;;;;23.86;53.22;100719.66;4971619;28;20030;-65
2022/09/08 02:21:16;;;;;;;4.13;1.33;;;;;;;23.83;52.65;100714.66;4971924;28;20624;-65
2022/09/08 02:23:45;;;;;;;4.13;1.50;;;;;;;23.83;53.25;100712.00;4976673;28;20042;-65
2022/09/08 02:26:38;;;;;;;4.80;1.35;;;;;;;23.86;52.55;100726.78;4981451;28;20030;-65
2022/09/08 02:29:08;;;;;;;3.75;1.30;;;;;;;23.82;52.91;100718.25;4966868;28;20046;-64
2022/09/08 02:31:34;;;;;;;4.32;1.13;;;;;;;23.84;52.49;100721.63;4967806;28;20057;-64
2022/09/08 02:34:00;;;;;;;5.75;1.45;;;;;;;23.80;53.18;100708.78;4971034;28;20034;-63
2022/09/08 02:36:25;;;;;;;4.15;1.20;;;;;;;23.82;53.13;100699.63;4963845;28;20523;-64
2022/09/08 02:38:53;;;;;;;4.30;1.42;;;;;;;23.79;52.89;100691.16;4971481;28;20058;-63
2022/09/08 02:41:19;;;;;;;4.35;1.10;;;;;;;23.81;52.75;100702.47;4966593;28;20071;-64
2022/09/08 02:43:44;;;;;;;3.65;1.33;;;;;;;23.81;52.99;100715.78;4970920;28;20125;-64
2022/09/08 02:46:10;;;;;;;3.90;1.30;;;;;;;23.78;52.97;100705.44;4983019;28;20518;-63
2022/09/08 02:48:36;;;;;;;4.25;1.65;;;;;;;23.78;52.79;100710.78;4982789;28;20025;-65
2022/09/08 02:51:03;;;;;;;5.70;1.50;;;;;;;23.77;52.62;100706.47;4982530;28;20114;-65
2022/09/08 02:53:29;;;;;;;3.67;1.30;;;;;;;23.80;53.21;100717.59;4976811;28;20474;-64
2022/09/08 02:55:55;;;;;;;3.22;1.20;;;;;;;23.77;52.65;100709.13;4963269;28;20537;-65
2022/09/08 02:58:21;;;;;;;3.58;1.17;;;;;;;23.78;52.70;100711.59;4963735;28;20130;-64
2022/09/08 03:00:46;;;;;;;3.92;1.45;;;;;;;23.80;53.00;100708.78;4963438;28;20109;-64
2022/09/08 03:03:12;;;;;;;3.67;1.43;;;;;;;23.77;52.79;100703.81;4963440;28;20074;-63
2022/09/08 03:05:37;;;;;;;3.80;1.10;;;;;;;23.76;53.10;100697.63;4965264;28;20629;-63
2022/09/08 03:08:04;;;;;;;4.95;1.48;;;;;;;23.80;53.11;100706.97;4975560;28;20041;-65
2022/09/08 03:10:31;;;;;;;4.00;1.45;;;;;;;23.78;52.55;100711.59;4963360;28;20322;-64
2022/09/08 03:12:57;;;;;;;4.35;1.30;;;;;;;23.78;53.02;100713.44;4963008;28;20033;-64
2022/09/08 03:15:24;;;;;;;3.35;1.30;;;;;;;23.72;52.91;100707.78;4963762;28;20047;-66
2022/09/08 03:17:50;;;;;;;3.47;1.33;;;;;;;23.76;52.72;100712.78;4962947;28;20094;-64
2022/09/08 03:20:16;;;;;;;3.58;1.15;;;;;;;23.65;53.10;100697.97;4975771;28;20498;-64
2022/09/08 03:22:42;;;;;;;3.70;1.23;;;;;;;23.73;53.04;100708.59;4982751;28;20062;-64
2022/09/08 03:25:08;;;;;;;4.05;1.25;;;;;;;23.76;52.91;100710.94;4973563;28;20089;-65
2022/09/08 03:27:33;;;;;;;3.85;1.35;;;;;;;23.73;52.54;100708.59;4962839;28;20117;-65
2022/09/08 03:29:59;;;;;;;3.70;1.20;;;;;;;23.75;52.43;100721.75;4962665;28;20130;-65
2022/09/08 03:32:24;;;;;;;3.17;1.35;;;;;;;23.73;52.88;100728.09;4965778;28;20077;-64
2022/09/08 03:34:49;;;;;;;3.28;1.20;;;;;;;23.72;52.59;100725.59;4977461;28;20473;-64
2022/09/08 03:37:15;;;;;;;4.05;1.33;;;;;;;23.72;52.47;100744.22;4981809;28;20045;-63
2022/09/08 03:39:40;;;;;;;2.13;0.90;;;;;;;23.70;52.47;100752.34;4964020;28;20049;-64
2022/09/08 03:42:06;;;;;;;4.87;1.43;;;;;;;23.69;52.58;100761.31;4970911;28;20041;-63
2022/09/08 03:44:32;;;;;;;5.57;1.33;;;;;;;23.66;53.02;100742.19;4962562;28;20299;-65
2022/09/08 03:46:58;;;;;;;4.05;1.42;;;;;;;23.70;52.91;100715.09;4962803;28;20038;-63
2022/09/08 03:49:23;;;;;;;3.90;1.40;;;;;;;23.72;53.18;100717.59;4980663;28;20026;-63
2022/09/08 03:51:48;;;;;;;4.00;1.13;;;;;;;23.66;53.08;100708.44;4975766;28;20034;-65
2022/09/08 03:56:57;;;;;;;2.97;1.08;;;;;;;23.68;52.63;100705.63;4980787;28;20271;-64
2022/09/08 03:59:23;;;;;;;3.67;1.33;;;;;;;23.67;52.63;100699.47;4979824;28;20038;-64
2022/09/08 04:01:49;;;;;;;2.60;0.98;;;;;;;23.67;52.51;100702.13;4962330;28;20772;-65
2022/09/08 04:04:15;;;;;;;3.42;1.17;;;;;;;23.62;52.58;100699.13;4965017;28;20527;-64
2022/09/08 04:06:40;;;;;;;3.45;1.30;;;;;;;23.63;52.61;100702.63;4981647;28;20109;-64
2022/09/08 04:09:05;;;;;;;3.57;1.10;;;;;;;23.64;52.60;100698.94;4968818;28;20042;-63
2022/09/08 04:11:31;;;;;;;2.57;0.93;;;;;;;23.63;52.89;100698.13;4974462;28;20621;-64
2022/09/08 04:13:56;;;;;;;4.60;1.20;;;;;;;23.60;52.60;100702.94;4981882;28;20275;-63
2022/09/08 04:16:22;;;;;;;4.07;1.20;;;;;;;23.63;52.95;100705.28;4980904;28;20057;-65
2022/09/08 04:18:47;;;;;;;4.28;1.00;;;;;;;23.58;52.57;100699.63;4971823;28;20133;-64
2022/09/08 04:21:12;;;;;;;4.70;1.25;;;;;;;23.59;53.02;100703.94;4976611;28;20482;-65
2022/09/08 04:23:38;;;;;;;3.83;1.10;;;;;;;23.57;52.50;100701.44;4962581;28;20435;-64
2022/09/08 04:26:09;;;;;;;4.68;1.60;;;;;;;23.59;52.80;100707.44;4962337;28;20045;-63
2022/09/08 04:28:36;;;;;;;3.47;1.20;;;;;;;23.58;52.73;100711.09;4966161;28;20034;-65
2022/09/08 04:31:06;;;;;;;2.80;1.10;;;;;;;23.58;52.68;100715.59;4978619;28;20414;-66
2022/09/08 04:33:31;;;;;;;3.65;1.15;;;;;;;23.60;52.74;100724.22;4972794;28;20042;-65
2022/09/08 04:35:57;;;;;;;2.60;1.10;;;;;;;23.56;52.88;100715.75;4978983;28;20348;-66
2022/09/08 04:38:22;;;;;;;3.40;1.20;;;;;;;23.55;52.98;100719.41;4978165;28;20134;-64
2022/09/08 04:40:48;;;;;;;3.53;1.00;;;;;;;23.60;52.49;100725.06;4974565;28;20031;-66
2022/09/08 04:43:13;;;;;;;3.78;1.10;;;;;;;23.59;52.88;100723.41;4976793;28;20113;-65
2022/09/08 04:45:38;;;;;;;3.93;1.10;;;;;;;23.58;52.99;100726.22;4966741;28;20042;-65
2022/09/08 04:48:04;;;;;;;2.75;0.95;;;;;;;23.61;53.09;100720.59;4963876;28;20271;-65
2022/09/08 04:50:29;;;;;;;3.90;1.37;;;;;;;23.60;52.93;100726.91;4974980;28;20830;-65
2022/09/08 04:52:54;;;;;;;2.37;1.03;;;;;;;23.58;52.75;100720.91;4963918;28;20261;-64
2022/09/08 04:55:20;;;;;;;3.45;1.27;;;;;;;23.57;53.23;100722.72;4961943;28;20272;-65
2022/09/08 04:57:45;;;;;;;3.90;1.10;;;;;;;23.55;53.10;100722.88;4962020;28;20031;-65
2022/09/08 05:00:13;;;;;;;3.70;1.17;;;;;;;23.59;53.20;100727.88;4963444;28;20117;-65
2022/09/08 05:02:38;;;;;;;4.10;1.23;;;;;;;23.61;53.20;100733.88;4982286;28;20030;-64
2022/09/08 05:05:04;;;;;;;4.13;1.10;;;;;;;23.58;52.74;100729.72;4984456;28;20026;-65
2022/09/08 05:07:29;;;;;;;5.00;1.60;;;;;;;23.57;53.00;100729.88;4978495;28;20031;-65
2022/09/08 05:09:54;;;;;;;4.13;1.27;;;;;;;23.56;52.81;100729.06;4973389;28;20054;-65
2022/09/08 05:12:19;;;;;;;4.10;1.20;;;;;;;23.57;53.16;100729.88;4968171;28;20741;-65
2022/09/08 05:14:45;;;;;;;3.20;1.00;;;;;;;23.60;53.19;100732.22;4963912;28;20330;-64
2022/09/08 05:17:10;;;;;;;3.30;1.20;;;;;;;23.60;53.21;100732.22;4974973;28;20267;-65
2022/09/08 05:19:35;;;;;;;4.80;1.50;;;;;;;23.59;52.93;100742.03;4984035;28;20038;-65
2022/09/08 05:22:00;;;;;;;3.43;1.23;;;;;;;23.54;52.82;100728.38;4971406;28;20265;-65
2022/09/08 05:24:26;;;;;;;3.70;1.20;;;;;;;23.57;52.94;100736.03;4972151;28;20027;-64
2022/09/08 05:26:51;;;;;;;5.35;1.30;;;;;;;23.55;52.88;100741.50;4973328;28;20030;-65
2022/09/08 05:29:16;;;;;;;3.97;1.37;;;;;;;23.54;52.85;100739.84;4968769;28;20037;-64
2022/09/08 05:31:41;;;;;;;4.17;1.37;;;;;;;23.56;53.24;100723.75;4984099;28;20287;-65
2022/09/08 05:34:08;;;;;;;4.00;1.40;;;;;;;23.55;53.05;100730.03;4967166;28;20779;-66
2022/09/08 05:36:35;;;;;;;2.72;1.10;;;;;;;23.54;53.24;100720.38;4983809;28;20414;-65
2022/09/08 05:39:03;;;;;;;2.80;1.10;;;;;;;23.58;53.14;100734.22;4969670;28;20049;-64
2022/09/08 05:41:30;;;;;;;3.15;1.00;;;;;;;23.55;53.36;100725.53;4977744;28;20034;-65
2022/09/08 05:43:57;;;;;;;3.83;1.40;;;;;;;23.57;53.08;100737.84;4974208;28;20034;-65
2022/09/08 05:46:25;;;;;;;5.60;1.42;;;;;;;23.54;52.85;100736.34;4976057;28;20034;-65
2022/09/08 05:48:52;;;;;;;3.70;1.38;;;;;;;23.57;53.21;100735.19;4975585;28;20034;-64
2022/09/08 05:51:17;;;;;;;3.60;1.20;;;;;;;23.54;53.41;100731.03;4973363;28;20079;-65
2022/09/08 05:53:43;;;;;;;4.93;1.33;;;;;;;23.53;53.28;100732.84;4977638;28;20387;-65
2022/09/08 05:56:08;;;;;;;4.55;1.40;;;;;;;23.53;52.99;100732.84;4969877;28;20383;-64
2022/09/08 05:58:34;;;;;;;4.63;1.35;;;;;;;23.56;53.21;100731.72;4976640;28;20463;-65
2022/09/08 06:01:04;;;;;;;4.20;1.27;;;;;;;23.57;52.94;100730.69;4975469;28;20125;-63
2022/09/08 06:03:29;;;;;;;3.70;1.30;;;;;;;23.56;53.08;100731.72;4978793;28;20791;-64
2022/09/08 06:05:55;;;;;;;4.73;1.70;;;;;;;23.53;53.41;100727.53;4975992;28;20026;-64
2022/09/08 06:08:22;;;;;;;3.30;1.20;;;;;;;23.53;53.12;100730.19;4969734;28;20272;-63
2022/09/08 06:10:52;;;;;;;4.00;1.38;;;;;;;23.52;53.42;100735.69;4970380;28;20038;-66
2022/09/08 06:13:18;;;;;;;3.80;1.45;;;;;;;23.53;53.12;100742.69;4967716;28;20039;-65
2022/09/08 06:15:44;;;;;;;3.67;1.38;;;;;;;23.54;53.12;100742.50;4967542;28;20126;-63
2022/09/08 06:18:09;;;;;;;3.97;1.25;;;;;;;23.53;53.23;100740.84;4974922;28;20149;-66
2022/09/08 06:20:35;;;;;;;4.25;1.10;;;;;;;23.58;53.20;100743.00;4978197;28;20034;-70
2022/09/08 06:23:01;;;;;;;2.67;1.10;;;;;;;23.59;53.28;100731.38;4976142;28;20030;-63
2022/09/08 06:25:27;;;;;;;4.88;2.17;;;;;;;23.64;52.71;100733.53;4967151;28;20326;-63
2022/09/08 06:28:26;;;;;;;6.28;1.50;;;;;;;23.67;53.08;100736.72;4965747;28;20069;-63
2022/09/08 06:30:54;;;;;;;3.33;1.20;;;;;;;23.66;53.09;100740.38;4971727;28;20062;-63
2022/09/08 06:33:29;;;;;;;3.92;1.60;;;;;;;23.69;53.07;100744.53;4981669;28;20034;-63
2022/09/08 06:36:16;;;;;;;4.13;1.35;;;;;;;23.67;53.34;100744.69;4975864;28;20034;-64
2022/09/08 06:38:56;;;;;;;5.10;1.38;;;;;;;23.69;53.54;100742.69;4969125;28;20118;-64
2022/09/08 06:41:27;;;;;;;4.60;1.38;;;;;;;23.68;53.64;100741.03;4975216;28;20030;-62
2022/09/08 06:44:03;;;;;;;4.75;1.25;;;;;;;23.72;53.80;100752.19;4972551;28;20039;-64
2022/09/08 06:46:32;;;;;;;4.43;1.73;;;;;;;23.71;53.49;100746.03;4963468;28;20034;-65
2022/09/08 06:48:59;;;;;;;3.55;1.20;;;;;;;23.72;53.59;100753.00;4963364;28;20023;-63
2022/09/08 06:51:35;;;;;;;3.30;1.10;;;;;;;23.77;53.86;100754.38;4976703;28;20034;-63
2022/09/08 06:54:09;;;;;;;4.13;1.35;;;;;;;23.78;53.67;100754.16;4975733;28;20026;-64
2022/09/08 06:56:35;;;;;;;2.75;1.30;;;;;;;23.78;53.86;100756.00;4975950;28;20478;-65
2022/09/08 06:59:25;;;;;;;5.33;1.40;;;;;;;23.75;53.79;100749.22;4976570;28;20035;-64
2022/09/08 07:02:06;;;;;;;3.30;1.13;;;;;;;23.79;53.86;100757.69;4981374;28;20065;-65
2022/09/08 07:04:49;;;;;;;3.80;1.30;;;;;;;23.77;53.92;100755.19;4976359;28;20053;-64
2022/09/08 07:07:42;;;;;;;3.92;1.40;;;;;;;23.76;53.83;100752.69;4976633;28;20061;-65
2022/09/08 07:10:47;;;;;;;6.03;1.60;;;;;;;23.77;53.67;100755.19;4969153;28;20115;-63
2022/09/08 07:13:24;;;;;;;4.13;1.50;;;;;;;23.74;53.60;100747.53;4948604;28;20046;-63
2022/09/08 07:15:59;;;;;;;4.07;1.73;;;;;;;23.77;53.78;100757.84;4967619;28;20121;-64
2022/09/08 07:18:37;;;;;;;4.82;1.52;;;;;;;23.78;53.64;100758.66;4970239;28;20031;-64
2022/09/08 07:21:13;;;;;;;4.05;1.33;;;;;;;23.78;54.06;100756.84;4972770;28;20054;-64
2022/09/08 07:23:40;;;;;;;3.78;1.35;;;;;;;23.78;53.75;100748.03;4973132;28;20031;-63
2022/09/08 07:26:16;;;;;;;3.88;1.42;;;;;;;23.79;53.55;100749.69;4965168;28;20034;-63
2022/09/08 07:28:45;;;;;;;3.95;1.33;;;;;;;23.80;53.72;100752.19;4973021;28;20030;-63
2022/09/08 07:31:24;;;;;;;6.38;1.73;;;;;;;23.83;54.10;100748.34;4972181;28;20501;-65
2022/09/08 07:34:02;;;;;;;4.10;1.63;;;;;;;23.82;53.89;100760.03;4966851;28;20515;-63
2022/09/08 07:36:45;;;;;;;4.88;1.58;;;;;;;23.79;54.13;100752.38;4977410;28;20995;-65
2022/09/08 07:39:19;;;;;;;4.85;1.48;;;;;;;23.82;53.85;100758.19;4975490;28;20422;-64
2022/09/08 07:41:48;;;;;;;4.38;1.52;;;;;;;23.72;53.93;100736.22;4973555;28;20026;-62
2022/09/08 07:44:18;;;;;;;3.33;1.38;;;;;;;23.80;54.28;100752.19;4978425;28;20053;-65
2022/09/08 07:47:02;;;;;;;4.50;1.65;;;;;;;23.85;54.45;100757.06;4970790;28;20034;-63
2022/09/08 07:49:49;;;;;;;4.00;1.63;;;;;;;23.88;53.89;100754.06;4972413;28;20039;-65
2022/09/08 07:52:32;;;;;;;5.15;1.50;;;;;;;23.91;53.83;100756.41;4966568;28;20034;-64
2022/09/08 07:55:38;;;;;;;3.33;1.40;;;;;;;23.89;53.55;100739.75;4963070;28;20136;-64
2022/09/08 07:58:26;;;;;;;3.95;1.50;;;;;;;23.95;53.89;100763.03;4970446;28;20456;-64
2022/09/08 08:01:09;;;;;;;2.50;1.20;;;;;;;23.94;53.82;100766.72;4969203;28;20031;-63
2022/09/08 08:03:53;;;;;;;4.05;1.70;;;;;;;23.94;53.81;100769.38;4968058;28;20114;-64
2022/09/08 08:13:23;;;;;;;4.05;1.40;;;;;;;23.83;53.97;100759.88;4973281;28;20042;-74
2022/09/08 08:16:28;;;;;;;2.53;1.27;;;;;;;23.88;54.27;100770.88;4972245;28;20039;-74
2022/09/08 08:19:14;;;;;;;5.32;1.70;;;;;;;23.93;53.59;100765.06;4934416;28;20042;-74
2022/09/08 08:21:46;;;;;;;3.97;1.45;;;;;;;24.00;53.87;100776.69;4967970;28;20030;-72
2022/09/08 08:24:44;;;;;;;3.70;1.50;;;;;;;24.07;53.56;100767.06;4970509;28;20085;-74
2022/09/08 08:27:38;;;;;;;4.97;1.60;;;;;;;24.16;52.94;100775.03;4972184;28;20883;-72
2022/09/08 08:30:07;;;;;;;;;;;;;;;24.20;52.71;100774.53;4953207;28;20313;-68
2022/09/08 08:32:38;;;;;;;4.72;1.83;;;;;;;24.19;53.07;100774.72;4980092;28;19918;-72
2022/09/08 08:35:12;;;;;;;3.28;1.60;;;;;;;24.19;52.99;100772.03;4975366;28;20039;-79
2022/09/08 08:37:40;;;;;;;3.45;1.27;;;;;;;24.23;52.80;100770.72;4975099;28;20492;-79
2022/09/08 08:40:27;;;;;;;4.55;1.73;;;;;;;24.31;52.30;100769.88;4975367;28;20035;-76
2022/09/08 08:43:30;;;;;;;3.33;1.50;;;;;;;24.33;52.46;100766.03;4977436;28;20113;-76
2022/09/08 08:46:16;;;;;;;3.55;1.20;;;;;;;24.39;51.92;100772.53;4970438;28;20035;-73
2022/09/08 08:48:47;;;;;;;4.47;1.55;;;;;;;24.35;51.89;100774.69;4974230;28;20037;-78
2022/09/08 08:51:46;;;;;;;6.40;1.50;;;;;;;24.34;52.45;100770.38;4977465;28;20042;-75
2022/09/08 08:54:23;;;;;;;4.00;1.45;;;;;;;24.41;51.95;100774.03;4984903;28;20434;-74
2022/09/08 08:57:16;;;;;;;5.00;1.42;;;;;;;24.47;52.00;100779.66;4970613;28;20129;-75
2022/09/08 09:00:01;;;;;;;6.30;1.50;;;;;;;24.51;51.82;100770.34;4976254;28;20489;-76
2022/09/08 09:02:51;;;;;;;5.00;1.38;;;;;;;24.55;51.72;100775.19;4982091;28;20053;-73
2022/09/08 09:05:34;;;;;;;3.10;1.42;;;;;;;24.58;51.56;100772.22;4973817;28;20133;-73
2022/09/08 09:08:19;;;;;;;2.85;1.25;;;;;;;24.61;51.37;100765.72;4977273;28;20038;-73
2022/09/08 09:11:05;;;;;;;2.97;1.30;;;;;;;24.66;51.14;100770.50;4974405;28;20045;-73
2022/09/08 09:13:53;;;;;;;3.45;1.13;;;;;;;24.56;51.30;100762.69;4969831;28;20026;-68
2022/09/08 09:16:30;;;;;;;4.40;1.50;;;;;;;24.50;51.31;100761.53;4969772;28;20034;-73
2022/09/08 09:19:24;;;;;;;3.47;1.45;;;;;;;24.51;51.42;100765.84;4973603;28;20037;-71
2022/09/08 09:21:52;;;;;;;3.35;1.40;;;;;;;24.51;51.68;100768.50;4977213;28;20047;-79
2022/09/08 09:24:30;;;;;;;3.90;1.35;;;;;;;24.57;51.55;100761.72;4973678;28;20073;-77
2022/09/08 09:26:56;;;;;;;2.30;1.08;;;;;;;24.58;51.50;100764.22;4974925;28;20042;-77
2022/09/08 09:29:26;;;;;;;3.53;1.00;;;;;;;24.63;51.01;100759.22;4975065;28;20450;-75
2022/09/08 09:32:10;;;;;;;3.63;1.20;;;;;;;24.68;51.32;100760.53;4974831;28;20050;-78
2022/09/08 09:34:35;;;;;;;;;;;;;;;24.72;51.01;100765.38;4971413;28;20064;-77
2022/09/08 09:37:24;;;;;;;4.03;1.50;;;;;;;24.75;50.72;100765.03;4967314;28;19910;-78
2022/09/08 09:40:32;;;;;;;2.80;1.20;;;;;;;24.76;50.74;100764.00;4971107;28;20030;-76
2022/09/08 09:43:24;;;;;;;3.05;1.10;;;;;;;24.74;50.98;100762.53;4959732;28;20093;-69
2022/09/08 09:46:19;;;;;;;3.65;1.25;;;;;;;24.62;50.84;100760.22;4968992;28;20133;-73
2022/09/08 09:49:12;;;;;;;6.30;1.33;;;;;;;24.67;51.38;100761.53;4977868;28;20088;-77
2022/09/08 09:52:12;;;;;;;3.55;1.20;;;;;;;24.72;50.96;100765.38;4974430;28;20038;-76
2022/09/08 09:55:03;;;;;;;2.33;1.00;;;;;;;24.73;50.93;100759.00;4977325;28;20046;-74
2022/09/08 09:57:57;;;;;;;4.05;1.30;;;;;;;24.68;50.82;100747.22;4976608;28;20029;-84
2022/09/08 10:00:25;;;;;;;3.03;1.10;;;;;;;24.76;51.05;100755.19;4966255;28;20046;-79
2022/09/08 10:03:20;;;;;;;4.07;1.40;;;;;;;24.83;50.27;100763.31;4978829;28;20365;-78
2022/09/08 10:06:04;;;;;;;3.10;1.30;;;;;;;24.83;50.80;100772.13;4977921;28;20051;-73
2022/09/08 10:08:58;;;;;;;2.60;0.90;;;;;;;24.74;50.86;100770.53;4975324;28;20057;-71
2022/09/08 10:11:57;;;;;;;4.13;1.10;;;;;;;24.73;49.73;100772.34;4973591;28;20117;-68
2022/09/08 10:15:07;;;;;;;3.38;1.00;;;;;;;24.68;50.50;100765.88;4976031;28;20049;-68
2022/09/08 10:17:53;;;;;;;2.70;1.02;;;;;;;24.63;50.51;100759.22;4976386;28;20023;-69
2022/09/08 10:20:37;;;;;;;4.85;1.42;;;;;;;24.69;50.40;100768.38;4969691;28;20069;-75
2022/09/08 10:23:22;;;;;;;5.10;1.33;;;;;;;24.69;50.16;100783.50;4976939;28;20034;-73
2022/09/08 10:26:17;;;;;;;4.65;1.30;;;;;;;24.63;50.82;100769.88;4975404;28;21152;-74
2022/09/08 10:29:36;;;;;;;4.93;1.23;;;;;;;24.63;50.37;100777.84;4975013;28;20363;-74
2022/09/08 10:32:24;;;;;;;4.18;1.15;;;;;;;24.69;50.64;100786.16;4975485;28;20109;-73
2022/09/08 10:35:15;;;;;;;3.33;1.00;;;;;;;24.67;50.49;100777.53;4974493;28;20034;-75
2022/09/08 10:37:52;;;;;;;5.05;1.20;;;;;;;24.68;50.69;100785.34;4968123;28;20045;-65
2022/09/08 10:40:32;;;;;;;5.60;1.10;;;;;;;24.69;50.89;100780.84;4968428;28;20035;-64
2022/09/08 10:43:28;;;;;;;4.60;1.20;;;;;;;24.69;51.11;100770.19;4978889;28;20047;-66
2022/09/08 10:46:05;;;;;;;5.15;1.20;;;;;;;24.71;50.67;100771.69;4979027;28;20026;-66
2022/09/08 10:48:49;;;;;;;4.53;1.10;;;;;;;24.71;50.66;100766.34;4971714;28;20042;-66
2022/09/08 10:51:17;;;;;;;;;;;;;;;24.70;50.52;100764.69;4968076;28;20031;-64
2022/09/08 10:54:18;;;;;;;4.93;1.70;;;;;;;24.68;51.01;100763.22;4970695;28;20775;-66
2022/09/08 10:56:47;;;;;;;6.97;1.70;;;;;;;24.59;51.30;100760.56;4951711;28;20561;-79
2022/09/08 10:59:12;;;;;;;6.32;1.63;;;;;;;24.65;51.25;100771.53;4972321;28;20119;-80
2022/09/08 11:01:52;;;;;;;6.67;1.80;;;;;;;24.65;51.37;100760.88;4973592;28;20058;-81
2022/09/08 11:04:29;;;;;;;6.88;1.60;;;;;;;24.68;51.09;100764.03;4974174;28;20273;-82
2022/09/08 11:07:32;;;;;;;7.90;1.65;;;;;;;24.71;51.21;100758.34;4972982;28;20529;-80
2022/09/08 11:10:42;;;;;;;5.60;1.60;;;;;;;24.71;51.21;100750.38;4975471;28;20081;-81
2022/09/08 11:13:26;;;;;;;5.60;1.48;;;;;;;24.72;51.44;100761.84;4954877;28;20047;-72
2022/09/08 11:16:23;;;;;;;8.13;1.63;;;;;;;24.67;51.87;100758.88;4978117;28;20049;-72
2022/09/08 11:19:26;;;;;;;7.85;1.50;;;;;;;24.62;51.77;100756.72;4963742;28;20073;-70
2022/09/08 11:21:57;;;;;;;4.03;1.40;;;;;;;24.65;51.94;100756.38;4966330;28;20033;-73
2022/09/08 11:24:36;;;;;;;6.07;1.50;;;;;;;24.66;51.38;100749.19;4968152;28;20066;-74
2022/09/08 11:27:17;;;;;;;7.47;1.60;;;;;;;24.69;51.66;100751.53;4974889;28;20037;-74
2022/09/08 11:29:51;;;;;;;9.73;2.40;;;;;;;24.73;52.68;100743.03;4973758;28;20099;-79
2022/09/08 11:32:26;;;;;;;;;;;;;;;24.80;53.17;100751.16;4975362;28;20027;-79
2022/09/08 11:35:00;;;;;;;10.85;2.70;;;;;;;24.85;53.36;100746.16;4966972;28;19914;-71
2022/09/08 11:38:10;;;;;;;6.43;2.08;;;;;;;24.85;53.70;100742.66;4966891;28;20033;-79
2022/09/08 11:41:16;;;;;;;10.05;2.38;;;;;;;24.85;52.96;100738.19;4962513;28;20489;-77
2022/09/08 11:44:15;;;;;;;8.18;2.50;;;;;;;24.91;52.71;100737.50;4970804;28;20026;-76
2022/09/08 11:46:53;;;;;;;8.45;2.85;;;;;;;24.96;52.65;100737.81;4972289;28;20042;-78
2022/09/08 11:49:44;;;;;;;10.65;2.33;;;;;;;25.02;52.84;100738.94;4969063;28;20018;-77
2022/09/08 11:52:30;;;;;;;6.70;2.28;;;;;;;25.01;52.52;100726.63;4968959;28;20121;-73
2022/09/08 11:55:14;;;;;;;7.18;2.17;;;;;;;25.07;52.56;100719.75;4978100;28;20037;-73
2022/09/08 11:57:50;;;;;;;7.20;2.13;;;;;;;25.07;52.42;100725.94;4972792;28;20030;-75
2022/09/08 12:00:46;;;;;;;8.40;2.63;;;;;;;25.15;52.00;100730.38;4975507;28;20042;-74
2022/09/08 12:03:34;;;;;;;7.60;2.13;;;;;;;25.11;52.24;100718.41;4974070;28;20031;-63
2022/09/08 12:06:24;;;;;;;8.40;2.20;;;;;;;25.14;52.07;100718.88;4971238;28;20393;-64
2022/09/08 12:08:57;;;;;;;7.63;2.30;;;;;;;25.13;51.97;100705.72;4963777;28;20397;-64
2022/09/08 12:11:58;;;;;;;6.32;1.80;;;;;;;25.08;51.66;100700.91;4972240;28;20101;-63
2022/09/08 12:14:44;;;;;;;6.28;2.10;;;;;;;25.11;51.64;100708.56;4975107;28;20035;-63
2022/09/08 12:17:48;;;;;;;5.35;1.75;;;;;;;25.10;51.26;100706.06;4966376;28;20042;-63